Aérodrome :
LOGIN :

S'inscrire | Disclaimer

   EN    FR    IT 

 










Légende :    VFR   VFR Marginal   IFR   IFR Intensif   IFR Très Intensif
Visi : 
Plafond : 
>= 8 km
>= 3000ft
5 à 8 km
1000 à 3000 ft
1500m à 5 km
500 à 1000 ft
800 à 1500m
200 à 500 ft
< 800m
< 200 ft
Symboles :   Orages  Brouillard  Fortes neiges  Fortes précipitations  Vent > 20 kt
SIGMETs :   Divers  Orages  Givrage  Turbulence  Onde Orograph.  Cendres Volcan.






- Altitude de l'aérodrome : 268 ft
- Code IATA : BFS


EGAA - Belfast Aldergrove

DERNIER METAR :
  • 192350Z AUTO VRB01KT 9999 NCD 01/01 Q1027

METARs EXPIRÉS :
  • 192320Z AUTO 05003KT 020V080 9999 NCD 03/01 Q1027
  • 192250Z AUTO 03003KT 9999 NCD 04/03 Q1027
  • 192220Z AUTO VRB02KT 9999 NCD 06/04 Q1027
  • 192150Z AUTO 34005KT 310V030 9999 NCD 06/03 Q1027
  • 192120Z AUTO VRB01KT 9999 NCD 04/02 Q1026
  • 192050Z AUTO VRB03KT 9999 NCD 06/03 Q1026
  • 192020Z AUTO 36005KT 320V020 9999 NCD 07/03 Q1026
  • 191950Z AUTO 34007KT 9999 NCD 07/03 Q1025
  • 191920Z AUTO 35008KT 310V010 9999 NCD 08/02 Q1025

TAF TAF EGAA
Valide du 20 à 00h jusqu'au 21 à 00h UTC


192256Z 2000/2024 VRB03KT 9999 FEW045
TEMPO 2000/2007 5000 BR MIFG
PROB30 2001/2006 0300 FG VV///



MET'MAP, la Météo Aéronautique d'un coup d'oeil ! - Copyright ORBIFLY Décembre 2007 - Disclaimer

ORBIFLY MET'MAP TEAM :

Programmation & Développement : Alexandra Zaïnal
Sur une idée originale de : Baudouin d'Aumeries
Soutien technique & logistique : Manuel Goepfert
Assistance : Marc-Olivier Méhu




SOURCES & CREDITS :

   NOAA